createdAt,value
2022-12-20T00:01:38.069Z,7.18
2022-12-20T00:04:48.550Z,6.25
2022-12-20T00:07:58.293Z,10.15
2022-12-20T00:11:09.813Z,12.95
2022-12-20T00:14:19.673Z,7.53
2022-12-20T00:17:29.507Z,10.80
2022-12-20T00:20:39.760Z,12.85
2022-12-20T00:23:50.113Z,10.20
2022-12-20T00:27:00.278Z,9.15
2022-12-20T00:30:10.739Z,8.60
2022-12-20T00:33:20.781Z,4.82
2022-12-20T00:36:33.572Z,5.53
2022-12-20T00:39:44.389Z,6.72
2022-12-20T00:42:54.962Z,6.07
2022-12-20T00:46:06.134Z,6.90
2022-12-20T00:49:16.507Z,6.75
2022-12-20T00:52:26.754Z,7.43
2022-12-20T00:55:36.712Z,7.53
2022-12-20T00:58:48.032Z,9.30
2022-12-20T01:02:00.491Z,10.20
2022-12-20T01:05:13.333Z,8.27
2022-12-20T01:08:24.210Z,9.73
2022-12-20T01:11:37.850Z,8.02
2022-12-20T01:14:49.225Z,8.35
2022-12-20T01:17:56.939Z,7.57
2022-12-20T01:21:11.405Z,6.13
2022-12-20T01:24:23.313Z,11.52
2022-12-20T01:27:34.158Z,10.70
2022-12-20T01:30:45.670Z,9.40
2022-12-20T01:33:53.942Z,7.10
2022-12-20T01:36:57.555Z,5.63
2022-12-20T01:40:02.521Z,8.60
2022-12-20T01:43:06.816Z,8.35
2022-12-20T01:46:11.151Z,11.38
2022-12-20T01:49:23.753Z,8.07
2022-12-20T02:49:40.397Z,6.18
2022-12-20T02:58:29.307Z,5.20
2022-12-20T03:17:00.895Z,7.93
2022-12-20T03:33:59.178Z,18.83
2022-12-20T03:37:08.215Z,13.02
2022-12-20T03:44:00.868Z,4.53
2022-12-20T04:01:30.479Z,5.45
2022-12-20T04:04:55.943Z,6.15
2022-12-20T04:08:20.324Z,4.78
2022-12-20T04:11:52.183Z,8.10
2022-12-20T04:15:02.057Z,8.10
2022-12-20T04:18:38.114Z,6.80
2022-12-20T04:22:13.334Z,7.93
2022-12-20T04:25:29.652Z,6.95
2022-12-20T04:28:41.103Z,3.53
2022-12-20T04:31:48.412Z,5.50
2022-12-20T04:38:38.493Z,6.90
2022-12-20T04:45:33.523Z,8.30
2022-12-20T04:56:41.746Z,5.43
2022-12-20T04:59:57.113Z,4.93
2022-12-20T05:03:08.689Z,7.10
2022-12-20T05:06:46.574Z,5.30
2022-12-20T05:13:29.911Z,7.75
2022-12-20T05:16:43.575Z,6.35
2022-12-20T05:19:57.886Z,6.88
2022-12-20T05:27:01.319Z,6.53
2022-12-20T05:30:08.344Z,3.50
2022-12-20T05:33:17.692Z,3.50
2022-12-20T05:36:24.820Z,3.75
2022-12-20T05:39:31.501Z,3.38
2022-12-20T05:42:44.942Z,2.60
2022-12-20T05:45:59.489Z,4.25
2022-12-20T05:49:20.867Z,4.03
2022-12-20T05:52:30.762Z,6.78
2022-12-20T05:55:37.238Z,3.45
2022-12-20T06:02:15.727Z,4.13
2022-12-20T06:05:28.205Z,3.58
2022-12-20T06:08:49.709Z,3.03
2022-12-20T06:12:24.963Z,3.00
2022-12-20T06:19:02.501Z,2.28
2022-12-20T06:25:36.427Z,4.05
2022-12-20T06:35:44.684Z,3.75
2022-12-20T06:38:51.007Z,4.88
2022-12-20T06:41:54.907Z,5.03
2022-12-20T06:45:02.873Z,3.47
2022-12-20T06:48:07.010Z,3.85
2022-12-20T06:51:12.458Z,2.78
2022-12-20T06:54:19.019Z,2.90
2022-12-20T06:57:27.041Z,1.90
2022-12-20T07:00:39.862Z,4.53
2022-12-20T07:03:57.157Z,4.80
2022-12-20T07:07:07.628Z,3.83
2022-12-20T07:10:18.192Z,4.32
2022-12-20T07:13:34.388Z,3.47
2022-12-20T07:20:36.823Z,8.43
2022-12-20T07:23:43.381Z,5.65
2022-12-20T07:26:50.361Z,6.82
2022-12-20T07:30:11.777Z,2.88
2022-12-20T07:33:42.929Z,5.15
2022-12-20T07:51:55.009Z,8.23
2022-12-20T08:09:21.050Z,4.78
2022-12-20T08:20:29.680Z,14.10
2022-12-20T08:23:47.032Z,9.57
2022-12-20T08:30:30.549Z,14.18
2022-12-20T08:33:59.351Z,9.88
2022-12-20T08:37:14.379Z,13.25
2022-12-20T08:40:26.997Z,10.95
2022-12-20T08:43:34.923Z,8.90
2022-12-20T08:46:46.962Z,9.98
2022-12-20T08:49:57.974Z,5.82
2022-12-20T08:53:06.506Z,6.20
2022-12-20T09:02:50.857Z,6.75
2022-12-20T09:05:59.414Z,7.55
2022-12-20T09:09:11.148Z,5.13
2022-12-20T09:12:20.238Z,8.48
2022-12-20T09:15:29.245Z,10.98
2022-12-20T09:18:39.119Z,6.80
2022-12-20T09:21:49.595Z,13.48
2022-12-20T09:25:01.898Z,11.18
2022-12-20T09:28:08.894Z,12.02
2022-12-20T09:34:51.629Z,13.68
2022-12-20T09:38:03.537Z,33.75
2022-12-20T09:44:45.260Z,14.25
2022-12-20T09:47:58.204Z,13.40
2022-12-20T09:51:12.623Z,14.32
2022-12-20T09:54:29.867Z,12.18
2022-12-20T09:57:57.318Z,15.50
2022-12-20T10:01:24.932Z,7.85
2022-12-20T10:04:46.987Z,5.68
2022-12-20T10:08:19.428Z,4.55
2022-12-20T10:11:40.914Z,11.40
2022-12-20T10:41:24.242Z,14.65
2022-12-20T10:44:54.299Z,12.15
2022-12-20T16:42:54.754Z,47.75
2022-12-20T16:46:28.617Z,47.28
2022-12-20T16:49:37.577Z,46.65
2022-12-20T16:52:44.904Z,42.78
2022-12-20T17:13:25.907Z,34.58
2022-12-20T17:16:34.674Z,44.75
2022-12-20T17:27:16.364Z,30.48
2022-12-20T17:31:08.191Z,27.90
2022-12-20T17:49:02.594Z,37.53
